Time;durP1;ratioP1;P1;durP2;ratioP2;P2;SDS_P1;SDS_P2;PMS_P1;PMS_P2;Temp;Humidity;BMP_temperature;BMP_pressure;BME280_temperature;BME280_humidity;BME280_pressure;Samples;Min_cycle;Max_cycle;Signal;HPM_P1;HPM_P2
2022/03/11 00:00:48;;;;;;;17.67;9.75;;;;;;;;;;4997915;28;93259;-75
2022/03/11 00:03:15;;;;;;;18.60;10.85;;;;;;;;;;5012824;28;92513;-75
2022/03/11 00:05:43;;;;;;;19.95;10.55;;;;;;;;;;4983246;28;94381;-74
2022/03/11 00:08:10;;;;;;;19.67;10.15;;;;;;;;;;4997240;28;92578;-76
2022/03/11 00:10:36;;;;;;;18.20;10.35;;;;;;;;;;4994306;28;92713;-73
2022/03/11 00:13:02;;;;;;;18.17;10.18;;;;;;;;;;4997512;28;94570;-71
2022/03/11 00:15:30;;;;;;;16.70;9.95;;;;;;;;;;5002049;28;95301;-75
2022/03/11 00:17:57;;;;;;;20.35;10.43;;;;;;;;;;5006804;28;92454;-73
2022/03/11 00:20:24;;;;;;;14.82;9.75;;;;;;;;;;5010303;28;93103;-75
2022/03/11 00:22:51;;;;;;;18.83;10.90;;;;;;;;;;5015930;28;93385;-75
2022/03/11 00:25:18;;;;;;;17.38;9.63;;;;;;;;;;4993792;28;92956;-71
2022/03/11 00:27:45;;;;;;;21.10;9.13;;;;;;;;;;4993042;28;93751;-75
2022/03/11 00:30:11;;;;;;;19.88;10.68;;;;;;;;;;4993414;28;92520;-75
2022/03/11 00:32:38;;;;;;;13.48;9.63;;;;;;;;;;5000600;28;92855;-75
2022/03/11 00:35:09;;;;;;;17.35;11.07;;;;;;;;;;5012387;28;94400;-74
2022/03/11 00:37:35;;;;;;;21.10;10.05;;;;;;;;;;5009498;28;92518;-73
2022/03/11 00:40:02;;;;;;;17.20;10.38;;;;;;;;;;5003087;28;94848;-73
2022/03/11 00:42:29;;;;;;;20.60;10.73;;;;;;;;;;5011837;28;93741;-74
2022/03/11 00:44:55;;;;;;;15.85;9.63;;;;;;;;;;5015946;28;93318;-74
2022/03/11 00:47:21;;;;;;;17.02;10.18;;;;;;;;;;4992796;28;93463;-74
2022/03/11 00:49:48;;;;;;;14.15;9.43;;;;;;;;;;5005954;28;92620;-74
2022/03/11 00:52:14;;;;;;;16.92;10.13;;;;;;;;;;4998940;28;93338;-74
2022/03/11 00:54:40;;;;;;;15.63;9.80;;;;;;;;;;5011681;28;92558;-72
2022/03/11 00:57:06;;;;;;;22.20;9.50;;;;;;;;;;5009847;28;91651;-75
2022/03/11 00:59:33;;;;;;;19.35;10.35;;;;;;;;;;4994554;28;93043;-75
2022/03/11 01:01:59;;;;;;;20.92;10.02;;;;;;;;;;5003262;28;93656;-75
2022/03/11 01:04:25;;;;;;;17.35;10.07;;;;;;;;;;4990897;28;94974;-76
2022/03/11 01:06:52;;;;;;;17.98;10.23;;;;;;;;;;4994589;28;94425;-74
2022/03/11 01:09:18;;;;;;;14.93;9.98;;;;;;;;;;4992413;28;92580;-74
2022/03/11 01:11:44;;;;;;;22.88;9.73;;;;;;;;;;4976817;28;94134;-74
2022/03/11 01:14:11;;;;;;;20.15;9.80;;;;;;;;;;4994000;28;93504;-75
2022/03/11 01:16:37;;;;;;;19.75;10.75;;;;;;;;;;4992489;28;92397;-75
2022/03/11 01:19:03;;;;;;;17.67;10.68;;;;;;;;;;4992558;28;93230;-73
2022/03/11 01:21:30;;;;;;;17.73;11.13;;;;;;;;;;4998810;28;94041;-75
2022/03/11 01:23:56;;;;;;;25.80;14.00;;;;;;;;;;5000348;28;92389;-75
2022/03/11 01:26:22;;;;;;;29.45;13.32;;;;;;;;;;5004560;28;94128;-76
2022/03/11 01:28:49;;;;;;;34.90;18.02;;;;;;;;;;5000398;28;94894;-75
2022/03/11 01:31:17;;;;;;;42.58;21.52;;;;;;;;;;4991861;28;95798;-74
2022/03/11 01:33:44;;;;;;;35.70;17.52;;;;;;;;;;4997838;28;93447;-74
2022/03/11 01:36:11;;;;;;;38.05;19.17;;;;;;;;;;5004480;28;92660;-74
2022/03/11 01:38:38;;;;;;;33.15;17.02;;;;;;;;;;4992125;28;94290;-75
2022/03/11 01:41:04;;;;;;;32.30;17.35;;;;;;;;;;4991639;28;93495;-75
2022/03/11 01:43:48;;;;;;;39.90;19.45;;;;;;;;;;5008016;28;92632;-75
2022/03/11 01:46:14;;;;;;;32.50;17.83;;;;;;;;;;5000862;28;93369;-75
2022/03/11 01:48:41;;;;;;;40.70;18.08;;;;;;;;;;5012364;28;93506;-75
2022/03/11 01:51:07;;;;;;;38.70;19.08;;;;;;;;;;4993666;28;93194;-75
2022/03/11 01:53:33;;;;;;;44.72;19.83;;;;;;;;;;4993735;28;95904;-75
2022/03/11 01:56:00;;;;;;;48.10;20.27;;;;;;;;;;4991985;28;93429;-75
2022/03/11 01:58:27;;;;;;;43.25;20.55;;;;;;;;;;5009916;28;92754;-75
2022/03/11 02:00:53;;;;;;;45.58;20.67;;;;;;;;;;5008621;28;93544;-74
2022/03/11 02:03:20;;;;;;;44.42;19.85;;;;;;;;;;4991712;28;93304;-74
2022/03/11 02:05:46;;;;;;;38.17;17.77;;;;;;;;;;4991471;28;94309;-75
2022/03/11 02:08:13;;;;;;;43.72;19.02;;;;;;;;;;5009220;28;93454;-75
2022/03/11 02:10:39;;;;;;;41.22;18.80;;;;;;;;;;5014489;28;91785;-75
2022/03/11 02:13:06;;;;;;;34.25;17.33;;;;;;;;;;4999270;28;93236;-75
2022/03/11 02:15:32;;;;;;;25.30;13.52;;;;;;;;;;5000201;28;92484;-75
2022/03/11 02:17:59;;;;;;;20.48;12.38;;;;;;;;;;4990379;28;94990;-73
2022/03/11 02:20:25;;;;;;;20.92;11.45;;;;;;;;;;4992789;28;94344;-75
2022/03/11 02:22:52;;;;;;;17.70;10.90;;;;;;;;;;5000013;28;92388;-75
2022/03/11 02:25:19;;;;;;;16.23;9.88;;;;;;;;;;4998491;28;92868;-72
2022/03/11 02:27:48;;;;;;;17.92;10.65;;;;;;;;;;4991796;28;93310;-75
2022/03/11 02:30:15;;;;;;;21.02;11.18;;;;;;;;;;5006971;28;92437;-75
2022/03/11 02:32:42;;;;;;;19.50;10.45;;;;;;;;;;5007112;28;93031;-75
2022/03/11 02:35:08;;;;;;;18.02;11.18;;;;;;;;;;5007976;28;92459;-75
2022/03/11 02:37:35;;;;;;;27.05;11.18;;;;;;;;;;5006447;28;93107;-76
2022/03/11 02:40:02;;;;;;;18.90;10.18;;;;;;;;;;4994335;28;94393;-75
2022/03/11 02:42:28;;;;;;;21.88;10.80;;;;;;;;;;4997993;28;94838;-76
2022/03/11 02:44:56;;;;;;;17.08;10.38;;;;;;;;;;5013667;28;94483;-74
2022/03/11 02:47:22;;;;;;;21.40;10.80;;;;;;;;;;4994071;28;94512;-74
2022/03/11 02:49:48;;;;;;;18.33;11.02;;;;;;;;;;5013918;28;92508;-74
2022/03/11 02:52:15;;;;;;;18.17;10.80;;;;;;;;;;5002266;28;92688;-75
2022/03/11 02:54:41;;;;;;;18.92;10.02;;;;;;;;;;5016870;28;92614;-74
2022/03/11 02:57:07;;;;;;;17.95;9.90;;;;;;;;;;5011428;28;92992;-75
2022/03/11 02:59:33;;;;;;;23.77;10.50;;;;;;;;;;4994724;28;92542;-74
2022/03/11 03:02:00;;;;;;;21.63;11.30;;;;;;;;;;4996489;28;93078;-75
2022/03/11 03:04:26;;;;;;;17.67;10.07;;;;;;;;;;5014103;28;92934;-75
2022/03/11 03:06:55;;;;;;;21.02;10.45;;;;;;;;;;5011681;28;95858;-75
2022/03/11 03:09:21;;;;;;;16.20;9.70;;;;;;;;;;5013850;28;92369;-75
2022/03/11 03:11:47;;;;;;;18.52;10.48;;;;;;;;;;5009514;28;93205;-75
2022/03/11 03:14:14;;;;;;;14.70;9.43;;;;;;;;;;4983821;28;93380;-75
2022/03/11 03:16:40;;;;;;;21.25;10.52;;;;;;;;;;5002948;28;92686;-69
2022/03/11 03:19:06;;;;;;;15.40;9.82;;;;;;;;;;4993666;28;93417;-75
2022/03/11 03:21:33;;;;;;;21.98;9.82;;;;;;;;;;5002603;28;93731;-75
2022/03/11 03:23:59;;;;;;;18.40;9.95;;;;;;;;;;4994502;28;93240;-75
2022/03/11 03:26:25;;;;;;;18.98;10.52;;;;;;;;;;4994420;28;93481;-72
2022/03/11 03:28:52;;;;;;;21.38;9.98;;;;;;;;;;4993368;28;92674;-74
2022/03/11 03:31:19;;;;;;;15.70;9.82;;;;;;;;;;4992321;28;95332;-74
2022/03/11 03:33:45;;;;;;;18.80;10.40;;;;;;;;;;4984932;28;93461;-73
2022/03/11 03:36:12;;;;;;;18.55;10.45;;;;;;;;;;4996519;28;92529;-75
2022/03/11 03:38:38;;;;;;;16.83;9.55;;;;;;;;;;4995044;28;94098;-75
2022/03/11 03:41:05;;;;;;;15.95;8.73;;;;;;;;;;5013559;28;92478;-75
2022/03/11 03:43:31;;;;;;;16.77;10.35;;;;;;;;;;4994797;28;93354;-75
2022/03/11 03:45:57;;;;;;;15.20;9.50;;;;;;;;;;4993350;28;93319;-76
2022/03/11 03:48:23;;;;;;;14.18;9.07;;;;;;;;;;4994333;28;92116;-75
2022/03/11 03:50:50;;;;;;;23.23;9.68;;;;;;;;;;4994059;28;92943;-75
2022/03/11 03:53:16;;;;;;;20.10;10.27;;;;;;;;;;5008943;28;93460;-75
2022/03/11 03:55:42;;;;;;;21.65;10.45;;;;;;;;;;5010844;28;95164;-75
2022/03/11 03:58:09;;;;;;;15.90;9.18;;;;;;;;;;4999390;28;95357;-75
2022/03/11 04:00:35;;;;;;;22.73;10.00;;;;;;;;;;5010528;28;92545;-74
2022/03/11 04:03:01;;;;;;;18.05;10.95;;;;;;;;;;5001038;28;93188;-75
2022/03/11 04:05:28;;;;;;;21.08;10.80;;;;;;;;;;4992736;28;93294;-75
2022/03/11 04:07:54;;;;;;;19.55;10.38;;;;;;;;;;4992843;28;92621;-75
2022/03/11 04:10:20;;;;;;;17.13;10.25;;;;;;;;;;4992745;28;93220;-75
2022/03/11 04:12:47;;;;;;;21.27;10.45;;;;;;;;;;4994199;28;93744;-75
2022/03/11 04:15:13;;;;;;;13.45;9.23;;;;;;;;;;4993993;28;93286;-75
2022/03/11 04:17:40;;;;;;;16.65;9.77;;;;;;;;;;4996431;28;93333;-73
2022/03/11 04:20:07;;;;;;;18.10;10.10;;;;;;;;;;5007287;28;95954;-75
2022/03/11 04:22:38;;;;;;;20.15;10.40;;;;;;;;;;5010831;28;94072;-75
2022/03/11 04:25:05;;;;;;;15.20;9.38;;;;;;;;;;5006122;28;93407;-75
2022/03/11 04:27:31;;;;;;;17.23;10.35;;;;;;;;;;4999888;28;92460;-75
2022/03/11 04:29:57;;;;;;;16.85;10.23;;;;;;;;;;5005138;28;93208;-75
2022/03/11 04:32:24;;;;;;;20.80;9.40;;;;;;;;;;4994785;28;93382;-75
2022/03/11 04:34:50;;;;;;;16.30;10.05;;;;;;;;;;5002331;28;92436;-75
2022/03/11 04:37:16;;;;;;;16.77;9.80;;;;;;;;;;5010867;28;92155;-74
2022/03/11 04:39:42;;;;;;;17.70;10.13;;;;;;;;;;5003470;28;93398;-75
2022/03/11 04:42:10;;;;;;;24.42;10.52;;;;;;;;;;5002689;28;92648;-75
2022/03/11 04:44:36;;;;;;;17.90;10.27;;;;;;;;;;4998126;28;95621;-74
2022/03/11 04:47:03;;;;;;;15.27;9.93;;;;;;;;;;4994195;28;92704;-75
2022/03/11 04:49:29;;;;;;;18.40;10.05;;;;;;;;;;4993305;28;93153;-75
2022/03/11 04:51:55;;;;;;;18.50;9.93;;;;;;;;;;4993486;28;93307;-75
2022/03/11 04:54:21;;;;;;;20.63;10.45;;;;;;;;;;5011957;28;92448;-75
2022/03/11 04:56:48;;;;;;;20.05;10.27;;;;;;;;;;5010804;28;93224;-75
2022/03/11 04:59:14;;;;;;;16.55;10.18;;;;;;;;;;4972180;28;93387;-75
2022/03/11 05:01:40;;;;;;;15.20;9.63;;;;;;;;;;4986051;28;92062;-72
2022/03/11 05:04:07;;;;;;;21.65;10.38;;;;;;;;;;5011684;28;93500;-76
2022/03/11 05:06:33;;;;;;;19.92;10.35;;;;;;;;;;5011245;28;92503;-76
2022/03/11 05:08:59;;;;;;;15.95;10.10;;;;;;;;;;5009494;28;94758;-75
2022/03/11 05:11:25;;;;;;;21.08;10.48;;;;;;;;;;4997896;28;93842;-75
2022/03/11 05:13:52;;;;;;;20.38;9.88;;;;;;;;;;4991417;28;92822;-75
2022/03/11 05:16:18;;;;;;;17.40;10.35;;;;;;;;;;4987759;28;93224;-75
2022/03/11 05:18:47;;;;;;;17.92;9.68;;;;;;;;;;5011667;28;93484;-75
2022/03/11 05:21:13;;;;;;;17.30;10.25;;;;;;;;;;5012027;28;93274;-76
2022/03/11 05:23:39;;;;;;;18.08;10.82;;;;;;;;;;4992520;28;92374;-75
2022/03/11 05:26:24;;;;;;;14.90;8.88;;;;;;;;;;4999821;28;92802;-75
2022/03/11 05:28:55;;;;;;;16.48;10.15;;;;;;;;;;4992830;28;92467;-75
2022/03/11 05:31:21;;;;;;;20.67;9.77;;;;;;;;;;4991847;28;93436;-75
2022/03/11 05:33:48;;;;;;;19.45;10.38;;;;;;;;;;5005294;28;95029;-75
2022/03/11 05:36:15;;;;;;;18.35;9.93;;;;;;;;;;5002096;28;95610;-75
2022/03/11 05:38:41;;;;;;;21.75;11.10;;;;;;;;;;5005431;28;93076;-74
2022/03/11 05:41:11;;;;;;;16.10;9.82;;;;;;;;;;4994168;28;92449;-75
2022/03/11 05:43:38;;;;;;;17.20;9.10;;;;;;;;;;4995898;28;93106;-75
2022/03/11 05:46:04;;;;;;;22.02;9.90;;;;;;;;;;4998557;28;94353;-75
2022/03/11 05:48:31;;;;;;;17.70;9.95;;;;;;;;;;4992731;28;93141;-75
2022/03/11 05:50:57;;;;;;;17.80;10.23;;;;;;;;;;4992129;28;92576;-75
2022/03/11 05:53:23;;;;;;;20.20;10.32;;;;;;;;;;4992538;28;92579;-73
2022/03/11 05:55:49;;;;;;;23.88;10.07;;;;;;;;;;4996154;28;93049;-75
2022/03/11 05:58:16;;;;;;;16.48;10.35;;;;;;;;;;5000309;28;95762;-75
2022/03/11 06:00:42;;;;;;;16.38;10.10;;;;;;;;;;4996671;28;92535;-75
2022/03/11 06:03:08;;;;;;;23.08;10.98;;;;;;;;;;4992637;28;93219;-75
2022/03/11 06:05:35;;;;;;;17.65;10.85;;;;;;;;;;4991271;28;94352;-75
2022/03/11 06:08:01;;;;;;;21.58;10.45;;;;;;;;;;4996920;28;92512;-75
2022/03/11 06:10:27;;;;;;;17.15;9.50;;;;;;;;;;5001747;28;93288;-74
2022/03/11 06:12:54;;;;;;;17.42;9.63;;;;;;;;;;4996367;28;92426;-74
2022/03/11 06:15:20;;;;;;;17.83;10.10;;;;;;;;;;4998704;28;93215;-74
2022/03/11 06:17:46;;;;;;;29.33;11.27;;;;;;;;;;4995002;28;93651;-75
2022/03/11 06:20:13;;;;;;;17.67;9.80;;;;;;;;;;4996960;28;92637;-75
2022/03/11 06:22:46;;;;;;;16.77;10.05;;;;;;;;;;4998464;28;94861;-74
2022/03/11 06:25:13;;;;;;;17.27;9.80;;;;;;;;;;4995824;28;93465;-75
2022/03/11 06:27:39;;;;;;;20.85;10.93;;;;;;;;;;4995216;28;92589;-76
2022/03/11 06:30:06;;;;;;;40.72;11.98;;;;;;;;;;4997380;28;94283;-74
2022/03/11 06:32:32;;;;;;;23.40;10.82;;;;;;;;;;4996401;28;92820;-75
2022/03/11 06:34:58;;;;;;;29.48;11.27;;;;;;;;;;4993152;28;93039;-73
2022/03/11 06:37:25;;;;;;;26.58;10.55;;;;;;;;;;5000149;28;93576;-75
2022/03/11 06:39:51;;;;;;;21.63;10.98;;;;;;;;;;5003668;28;92019;-73
2022/03/11 06:42:17;;;;;;;16.55;10.32;;;;;;;;;;5006949;28;92425;-73
2022/03/11 06:44:43;;;;;;;18.05;10.48;;;;;;;;;;5000897;28;93474;-73
2022/03/11 06:47:10;;;;;;;23.50;10.85;;;;;;;;;;4993844;28;95005;-73
2022/03/11 06:49:36;;;;;;;16.35;10.35;;;;;;;;;;4993836;28;95370;-73
2022/03/11 06:52:02;;;;;;;24.25;10.20;;;;;;;;;;4996155;28;93186;-75
2022/03/11 06:54:28;;;;;;;19.45;10.75;;;;;;;;;;5003166;28;93584;-73
2022/03/11 06:56:55;;;;;;;22.17;10.20;;;;;;;;;;5007237;28;93591;-72
2022/03/11 06:59:21;;;;;;;24.33;11.30;;;;;;;;;;5005043;28;92503;-72
2022/03/11 07:01:47;;;;;;;30.17;11.57;;;;;;;;;;4993351;28;93284;-72
2022/03/11 07:04:14;;;;;;;16.65;9.60;;;;;;;;;;5000551;28;91770;-71
2022/03/11 07:06:40;;;;;;;22.95;9.55;;;;;;;;;;4993867;28;92614;-71
2022/03/11 07:09:06;;;;;;;20.80;10.30;;;;;;;;;;4992876;28;92980;-73
2022/03/11 07:11:33;;;;;;;20.23;10.18;;;;;;;;;;4991926;28;96908;-73
2022/03/11 07:13:59;;;;;;;20.15;10.07;;;;;;;;;;4997658;28;92432;-73
2022/03/11 07:16:25;;;;;;;27.10;10.73;;;;;;;;;;4991143;28;94590;-73
2022/03/11 07:18:52;;;;;;;18.38;10.00;;;;;;;;;;4992189;28;92401;-72
2022/03/11 07:21:18;;;;;;;21.00;10.27;;;;;;;;;;4993349;28;93455;-73
2022/03/11 07:23:46;;;;;;;20.65;9.80;;;;;;;;;;4993622;28;94450;-72
2022/03/11 07:26:12;;;;;;;20.27;11.30;;;;;;;;;;4985925;28;95405;-73
2022/03/11 07:28:39;;;;;;;22.48;11.00;;;;;;;;;;4985505;28;93193;-72
2022/03/11 07:31:05;;;;;;;25.25;10.18;;;;;;;;;;4992415;28;93469;-72
2022/03/11 07:33:31;;;;;;;20.77;10.18;;;;;;;;;;4993130;28;92419;-76
2022/03/11 07:35:58;;;;;;;25.13;10.70;;;;;;;;;;4995625;28;95376;-75
2022/03/11 07:38:30;;;;;;;18.73;9.45;;;;;;;;;;4993293;28;92398;-74
2022/03/11 07:40:58;;;;;;;23.85;10.40;;;;;;;;;;4993229;28;94416;-75
2022/03/11 07:43:25;;;;;;;16.85;10.38;;;;;;;;;;4990158;28;94436;-75
2022/03/11 07:45:52;;;;;;;19.20;9.85;;;;;;;;;;4994066;28;92756;-75
2022/03/11 07:48:18;;;;;;;16.23;9.18;;;;;;;;;;4994203;28;94188;-76
2022/03/11 07:50:45;;;;;;;24.10;10.63;;;;;;;;;;5007258;28;93647;-74
2022/03/11 07:53:11;;;;;;;18.35;9.85;;;;;;;;;;4995591;28;92094;-74
2022/03/11 07:55:37;;;;;;;23.08;10.75;;;;;;;;;;5000622;28;92592;-73
2022/03/11 07:58:04;;;;;;;22.35;10.25;;;;;;;;;;4997409;28;94746;-72
2022/03/11 08:00:30;;;;;;;23.23;11.48;;;;;;;;;;5007683;28;94976;-75
2022/03/11 08:02:57;;;;;;;18.75;10.55;;;;;;;;;;4991296;28;93629;-76
2022/03/11 08:05:23;;;;;;;17.73;10.68;;;;;;;;;;4993015;28;92411;-75
2022/03/11 08:07:50;;;;;;;21.23;11.13;;;;;;;;;;4999104;28;93315;-75
2022/03/11 08:10:17;;;;;;;19.98;10.85;;;;;;;;;;5012684;28;93585;-73
2022/03/11 08:12:43;;;;;;;19.35;11.07;;;;;;;;;;4994122;28;94005;-73
2022/03/11 08:15:12;;;;;;;17.67;11.10;;;;;;;;;;4993596;28;93274;-74
2022/03/11 08:17:40;;;;;;;19.27;11.18;;;;;;;;;;4996820;28;92755;-73
2022/03/11 08:20:06;;;;;;;22.08;10.88;;;;;;;;;;4992824;28;92935;-72
2022/03/11 08:22:34;;;;;;;26.38;11.73;;;;;;;;;;4992825;28;93298;-73
2022/03/11 08:25:00;;;;;;;26.88;11.85;;;;;;;;;;4989696;28;94820;-73
2022/03/11 08:27:26;;;;;;;21.23;9.60;;;;;;;;;;4993898;28;95393;-73
2022/03/11 08:29:53;;;;;;;26.98;11.20;;;;;;;;;;4993330;28;93557;-69
2022/03/11 08:32:23;;;;;;;17.60;11.10;;;;;;;;;;4996141;28;92506;-75
2022/03/11 08:34:50;;;;;;;32.33;11.57;;;;;;;;;;4991746;28;93187;-75
2022/03/11 08:37:22;;;;;;;22.88;11.23;;;;;;;;;;4988311;28;93383;-73
2022/03/11 08:39:48;;;;;;;25.05;11.70;;;;;;;;;;4995925;28;92399;-73
2022/03/11 08:42:15;;;;;;;28.70;10.85;;;;;;;;;;4993130;28;93751;-73
2022/03/11 08:44:41;;;;;;;19.20;10.95;;;;;;;;;;4992828;28;92582;-73
2022/03/11 08:47:07;;;;;;;22.20;11.95;;;;;;;;;;4991580;28;93123;-73
2022/03/11 08:49:33;;;;;;;21.73;11.77;;;;;;;;;;4990685;28;97157;-76
2022/03/11 08:52:00;;;;;;;21.33;12.43;;;;;;;;;;4992301;28;93411;-74
2022/03/11 08:54:26;;;;;;;20.33;11.98;;;;;;;;;;4992980;28;94294;-74
2022/03/11 08:56:53;;;;;;;19.85;11.45;;;;;;;;;;5008849;28;93499;-74
2022/03/11 08:59:19;;;;;;;31.92;11.88;;;;;;;;;;4992662;28;92431;-74
2022/03/11 09:01:46;;;;;;;24.67;12.20;;;;;;;;;;4994743;28;93198;-73
2022/03/11 09:04:12;;;;;;;22.23;12.18;;;;;;;;;;4993013;28;93172;-74
2022/03/11 09:06:39;;;;;;;24.75;10.95;;;;;;;;;;4992612;28;94283;-74
2022/03/11 09:09:05;;;;;;;21.08;11.75;;;;;;;;;;4992490;28;94199;-74
2022/03/11 09:11:32;;;;;;;22.63;11.68;;;;;;;;;;4993612;28;92532;-74
2022/03/11 09:13:58;;;;;;;23.67;12.10;;;;;;;;;;4990655;28;95459;-74
2022/03/11 09:16:24;;;;;;;26.60;12.18;;;;;;;;;;4992206;28;93438;-74
2022/03/11 09:18:51;;;;;;;22.13;12.15;;;;;;;;;;4991913;28;92547;-74
2022/03/11 09:21:17;;;;;;;20.67;11.65;;;;;;;;;;4993995;28;92537;-74
2022/03/11 09:23:43;;;;;;;22.42;12.60;;;;;;;;;;4994835;28;93266;-75
2022/03/11 09:26:10;;;;;;;32.25;12.23;;;;;;;;;;4992191;28;93194;-76
2022/03/11 09:28:36;;;;;;;23.23;12.45;;;;;;;;;;4992170;28;93376;-75
2022/03/11 09:31:08;;;;;;;28.50;13.15;;;;;;;;;;4992411;28;91693;-75
2022/03/11 09:33:38;;;;;;;24.90;12.15;;;;;;;;;;4991865;28;93566;-75
2022/03/11 09:36:05;;;;;;;19.55;12.23;;;;;;;;;;4998743;28;93697;-75
2022/03/11 09:38:31;;;;;;;20.25;12.70;;;;;;;;;;4998182;28;95205;-73
2022/03/11 09:40:58;;;;;;;26.98;13.23;;;;;;;;;;5008964;28;96644;-73
2022/03/11 09:43:25;;;;;;;20.20;12.82;;;;;;;;;;5015496;28;94550;-74
2022/03/11 09:45:51;;;;;;;27.05;13.57;;;;;;;;;;5010071;28;92467;-73
2022/03/11 09:48:19;;;;;;;17.67;12.75;;;;;;;;;;4999705;28;94599;-74
2022/03/11 09:50:45;;;;;;;21.52;12.90;;;;;;;;;;5006121;28;93724;-74
2022/03/11 09:53:12;;;;;;;21.58;13.15;;;;;;;;;;4995069;28;92972;-74
2022/03/11 09:55:39;;;;;;;23.08;13.38;;;;;;;;;;4996010;28;93776;-74
2022/03/11 09:58:05;;;;;;;21.38;12.68;;;;;;;;;;4996313;28;93355;-74
2022/03/11 10:00:31;;;;;;;21.08;12.98;;;;;;;;;;5013574;28;93655;-73
2022/03/11 10:02:58;;;;;;;28.23;13.38;;;;;;;;;;5013169;28;95865;-74
2022/03/11 10:05:42;;;;;;;20.33;12.57;;;;;;;;;;5017664;28;93697;-73
2022/03/11 10:08:09;;;;;;;19.20;12.40;;;;;;;;;;5012776;28;93510;-71
2022/03/11 10:10:35;;;;;;;20.60;12.63;;;;;;;;;;5000102;28;94730;-74
2022/03/11 10:13:07;;;;;;;17.08;12.48;;;;;;;;;;4990114;28;94576;-76
2022/03/11 10:15:34;;;;;;;20.42;12.02;;;;;;;;;;4994759;28;93514;-75
2022/03/11 10:18:03;;;;;;;21.60;12.10;;;;;;;;;;4983200;28;92481;-75
2022/03/11 10:20:30;;;;;;;21.38;12.88;;;;;;;;;;4991682;28;93464;-72
2022/03/11 10:22:57;;;;;;;19.48;12.02;;;;;;;;;;4989292;28;93117;-71
2022/03/11 10:25:25;;;;;;;19.98;12.73;;;;;;;;;;4990198;28;92605;-70
2022/03/11 10:27:54;;;;;;;22.88;12.15;;;;;;;;;;4989494;28;95030;-72
2022/03/11 10:30:21;;;;;;;27.67;12.30;;;;;;;;;;4975228;28;92501;-75
2022/03/11 10:32:49;;;;;;;25.05;13.20;;;;;;;;;;4984064;28;93797;-71
2022/03/11 10:35:18;;;;;;;25.27;13.02;;;;;;;;;;4989644;28;93524;-76
2022/03/11 10:38:01;;;;;;;24.15;13.13;;;;;;;;;;4979718;28;92585;-75
2022/03/11 10:40:29;;;;;;;20.02;12.10;;;;;;;;;;4985271;28;93881;-76
2022/03/11 10:43:17;;;;;;;26.73;12.00;;;;;;;;;;4988447;28;95717;-75
2022/03/11 10:45:44;;;;;;;19.40;11.80;;;;;;;;;;4985883;28;91777;-73
2022/03/11 10:48:10;;;;;;;33.05;11.93;;;;;;;;;;4990065;28;93580;-72
2022/03/11 10:50:40;;;;;;;;;;;;;;;;;;4977702;28;93240;-71
2022/03/11 10:53:07;;;;;;;23.65;12.85;;;;;;;;;;4975529;28;121704;-74
2022/03/11 10:55:34;;;;;;;23.00;13.10;;;;;;;;;;4994724;28;93361;-75
2022/03/11 10:58:01;;;;;;;24.08;12.98;;;;;;;;;;4993160;28;92557;-73
2022/03/11 11:00:34;;;;;;;24.95;12.32;;;;;;;;;;4997745;28;93272;-73
2022/03/11 11:03:02;;;;;;;23.75;12.40;;;;;;;;;;5002199;28;95097;-73
2022/03/11 11:05:29;;;;;;;20.05;12.73;;;;;;;;;;5011865;28;92507;-73
2022/03/11 11:07:57;;;;;;;21.13;12.40;;;;;;;;;;5007285;28;92416;-73
2022/03/11 11:10:24;;;;;;;25.63;12.77;;;;;;;;;;4994232;28;93777;-73
2022/03/11 11:12:50;;;;;;;24.90;12.27;;;;;;;;;;4994797;28;93152;-73
2022/03/11 11:15:17;;;;;;;21.52;12.32;;;;;;;;;;4988020;28;92649;-73
2022/03/11 11:17:44;;;;;;;19.38;11.68;;;;;;;;;;4975861;28;94893;-72
2022/03/11 11:20:10;;;;;;;27.70;12.00;;;;;;;;;;4993205;28;95561;-73
2022/03/11 11:22:37;;;;;;;22.20;12.65;;;;;;;;;;4994770;28;94647;-73
2022/03/11 11:25:04;;;;;;;31.90;11.95;;;;;;;;;;4993305;28;92869;-73
2022/03/11 11:27:30;;;;;;;17.67;11.40;;;;;;;;;;4993527;28;93387;-73
2022/03/11 11:29:57;;;;;;;25.27;12.27;;;;;;;;;;4993927;28;94550;-73
2022/03/11 11:32:23;;;;;;;15.88;11.35;;;;;;;;;;4996000;28;94986;-73
2022/03/11 11:34:49;;;;;;;17.83;11.68;;;;;;;;;;4983535;28;93077;-72
2022/03/11 11:37:37;;;;;;;17.65;11.65;;;;;;;;;;4993617;28;92560;-73
2022/03/11 11:40:26;;;;;;;21.90;11.80;;;;;;;;;;4985511;28;96105;-72
2022/03/11 11:43:11;;;;;;;17.65;12.77;;;;;;;;;;4991552;28;95897;-72
2022/03/11 11:45:44;;;;;;;25.67;12.77;;;;;;;;;;4992173;28;92525;-72
2022/03/11 11:48:30;;;;;;;26.75;12.10;;;;;;;;;;4993576;28;93401;-73
2022/03/11 11:50:57;;;;;;;19.75;12.35;;;;;;;;;;4992526;28;93136;-74
2022/03/11 11:53:33;;;;;;;21.67;12.13;;;;;;;;;;4993371;28;92659;-73
2022/03/11 11:55:59;;;;;;;20.45;13.52;;;;;;;;;;4995175;28;92942;-72
2022/03/11 11:58:26;;;;;;;24.52;13.70;;;;;;;;;;4993108;28;92558;-72
2022/03/11 12:00:55;;;;;;;18.08;13.48;;;;;;;;;;4993435;28;94321;-73
2022/03/11 12:03:41;;;;;;;26.00;13.18;;;;;;;;;;4991677;28;94469;-73
2022/03/11 12:06:08;;;;;;;24.30;13.20;;;;;;;;;;4972311;28;92446;-73
2022/03/11 12:08:36;;;;;;;19.92;13.18;;;;;;;;;;4983823;28;94894;-72
2022/03/11 12:11:02;;;;;;;22.52;14.02;;;;;;;;;;5012141;28;93694;-73
2022/03/11 12:13:38;;;;;;;29.73;12.55;;;;;;;;;;5013021;28;93151;-73
2022/03/11 12:16:18;;;;;;;27.80;14.05;;;;;;;;;;4999102;28;94254;-72
2022/03/11 12:18:45;;;;;;;20.25;13.60;;;;;;;;;;4996741;28;94555;-75
2022/03/11 12:21:25;;;;;;;22.88;13.52;;;;;;;;;;4992431;28;93159;-76
2022/03/11 12:23:51;;;;;;;18.15;13.32;;;;;;;;;;4991824;28;92490;-75
2022/03/11 12:26:17;;;;;;;19.05;13.30;;;;;;;;;;4992650;28;91690;-73
2022/03/11 12:28:44;;;;;;;20.33;13.27;;;;;;;;;;4993271;28;92708;-73
2022/03/11 12:31:13;;;;;;;24.48;14.07;;;;;;;;;;4992502;28;94490;-72
2022/03/11 12:33:41;;;;;;;22.70;12.75;;;;;;;;;;4994073;28;94841;-72
2022/03/11 12:36:08;;;;;;;19.25;12.68;;;;;;;;;;4992023;28;95723;-72
2022/03/11 12:38:37;;;;;;;23.92;13.95;;;;;;;;;;5006238;28;93483;-74
2022/03/11 12:41:05;;;;;;;20.27;13.18;;;;;;;;;;5014831;28;92457;-73
2022/03/11 12:43:32;;;;;;;21.02;13.40;;;;;;;;;;5011466;28;92491;-73
2022/03/11 12:45:58;;;;;;;22.95;13.35;;;;;;;;;;4997285;28;93078;-74
2022/03/11 12:48:26;;;;;;;28.90;13.70;;;;;;;;;;5000182;28;93263;-73
2022/03/11 12:50:52;;;;;;;22.10;13.55;;;;;;;;;;5012057;28;92766;-73
2022/03/11 12:53:19;;;;;;;29.75;14.35;;;;;;;;;;5011484;28;92444;-73
2022/03/11 12:55:46;;;;;;;20.58;14.20;;;;;;;;;;5012141;28;94317;-73
2022/03/11 12:58:17;;;;;;;24.95;14.15;;;;;;;;;;5008074;28;95998;-73
2022/03/11 13:00:44;;;;;;;26.15;14.50;;;;;;;;;;5012042;28;92766;-74
2022/03/11 13:03:12;;;;;;;25.08;13.70;;;;;;;;;;4999147;28;94277;-74
2022/03/11 13:05:41;;;;;;;25.27;13.82;;;;;;;;;;5011556;28;92531;-73
2022/03/11 13:08:16;;;;;;;29.85;13.95;;;;;;;;;;5011299;28;93319;-74
2022/03/11 13:10:43;;;;;;;22.17;12.85;;;;;;;;;;5010133;28;94531;-74
2022/03/11 13:13:13;;;;;;;32.05;15.02;;;;;;;;;;5008094;28;92594;-73
2022/03/11 13:15:41;;;;;;;21.73;14.55;;;;;;;;;;4991865;28;93296;-73
2022/03/11 13:18:09;;;;;;;23.50;13.88;;;;;;;;;;4991772;28;93411;-73
2022/03/11 13:20:35;;;;;;;27.98;14.05;;;;;;;;;;4992692;28;92709;-73
2022/03/11 13:23:07;;;;;;;23.83;13.32;;;;;;;;;;4989426;28;94954;-73
2022/03/11 13:25:34;;;;;;;21.58;15.30;;;;;;;;;;4994326;28;93695;-73
2022/03/11 13:28:00;;;;;;;24.65;14.50;;;;;;;;;;4991858;28;92988;-73
2022/03/11 13:30:35;;;;;;;42.08;15.40;;;;;;;;;;4991607;28;93411;-74
2022/03/11 13:33:17;;;;;;;35.88;14.15;;;;;;;;;;4989105;28;92601;-75
2022/03/11 13:35:43;;;;;;;31.60;15.07;;;;;;;;;;4972473;28;93000;-74
2022/03/11 13:38:09;;;;;;;31.05;16.20;;;;;;;;;;4991139;28;93286;-75
2022/03/11 13:40:48;;;;;;;44.10;18.08;;;;;;;;;;4992767;28;92024;-75
2022/03/11 13:43:20;;;;;;;30.98;14.55;;;;;;;;;;4991855;28;93020;-75
2022/03/11 13:45:50;;;;;;;47.15;16.25;;;;;;;;;;4991301;28;93474;-75
2022/03/11 13:48:18;;;;;;;33.15;15.10;;;;;;;;;;4992661;28;95149;-74
2022/03/11 13:50:44;;;;;;;27.17;14.18;;;;;;;;;;4991227;28;93527;-75
2022/03/11 13:53:10;;;;;;;30.45;14.80;;;;;;;;;;4991335;28;92856;-75
2022/03/11 13:55:38;;;;;;;25.58;14.40;;;;;;;;;;4990671;28;93535;-74
2022/03/11 13:58:22;;;;;;;34.42;15.05;;;;;;;;;;4992150;28;94232;-75
2022/03/11 14:00:49;;;;;;;31.98;14.95;;;;;;;;;;4975689;28;92430;-75
2022/03/11 14:03:17;;;;;;;25.77;14.88;;;;;;;;;;4990383;28;93227;-75
2022/03/11 15:07:21;;;;;;;27.98;13.32;;;;;;;;;;4994137;28;86441;-69
2022/03/11 15:09:47;;;;;;;25.77;13.25;;;;;;;;;;4988661;28;89065;-70
2022/03/11 15:12:14;;;;;;;34.40;13.77;;;;;;;;;;4987865;28;89742;-70
2022/03/11 15:14:40;;;;;;;23.30;13.40;;;;;;;;;;4990208;28;89735;-70
2022/03/11 15:17:06;;;;;;;27.23;13.40;;;;;;;;;;4991541;28;90427;-71
2022/03/11 15:19:33;;;;;;;23.10;13.60;;;;;;;;;;4987889;28;89651;-70
2022/03/11 15:21:59;;;;;;;22.52;13.77;;;;;;;;;;4984498;28;89016;-70